createdAt,value
2022-09-25T00:00:38.982Z,8.17
2022-09-25T00:01:40.659Z,6.93
2022-09-25T00:02:42.394Z,6.53
2022-09-25T00:03:44.107Z,6.37
2022-09-25T00:04:45.667Z,9.33
2022-09-25T00:05:47.717Z,5.90
2022-09-25T00:06:49.339Z,8.60
2022-09-25T00:07:51.777Z,5.93
2022-09-25T00:08:54.249Z,5.37
2022-09-25T00:09:55.779Z,5.73
2022-09-25T00:10:57.374Z,8.93
2022-09-25T00:11:58.988Z,5.60
2022-09-25T00:13:00.933Z,7.17
2022-09-25T00:14:02.509Z,6.93
2022-09-25T00:15:05.622Z,7.87
2022-09-25T00:16:10.868Z,7.57
2022-09-25T00:17:12.487Z,7.13
2022-09-25T00:18:14.587Z,7.10
2022-09-25T00:19:40.914Z,6.57
2022-09-25T00:20:43.357Z,6.27
2022-09-25T00:21:45.318Z,8.73
2022-09-25T00:22:47.571Z,8.97
2022-09-25T00:23:49.116Z,9.87
2022-09-25T00:24:50.746Z,8.33
2022-09-25T00:25:56.216Z,8.13
2022-09-25T00:27:00.038Z,7.40
2022-09-25T00:28:01.838Z,7.90
2022-09-25T00:29:04.913Z,16.97
2022-09-25T00:30:07.518Z,7.00
2022-09-25T00:31:10.834Z,7.73
2022-09-25T00:32:12.483Z,6.20
2022-09-25T00:33:14.022Z,6.10
2022-09-25T00:34:15.574Z,5.40
2022-09-25T00:35:17.189Z,6.30
2022-09-25T00:36:19.292Z,6.87
2022-09-25T00:37:21.111Z,7.73
2022-09-25T00:38:22.644Z,7.07
2022-09-25T00:39:24.423Z,7.93
2022-09-25T00:40:26.088Z,6.53
2022-09-25T00:41:32.042Z,7.97
2022-09-25T00:42:33.735Z,7.73
2022-09-25T00:43:41.275Z,6.40
2022-09-25T00:44:56.847Z,6.27
2022-09-25T00:45:59.080Z,8.23
2022-09-25T00:47:01.034Z,6.00
2022-09-25T00:48:07.318Z,8.77
2022-09-25T00:49:12.458Z,7.37
2022-09-25T00:50:22.871Z,7.97
2022-09-25T00:51:30.437Z,8.27
2022-09-25T00:52:32.062Z,8.90
2022-09-25T00:53:38.578Z,6.83
2022-09-25T00:54:49.449Z,8.30
2022-09-25T00:55:51.983Z,8.93
2022-09-25T00:56:56.697Z,8.70
2022-09-25T00:58:00.545Z,8.30
2022-09-25T00:59:02.503Z,6.50
2022-09-25T01:00:08.514Z,6.77
2022-09-25T01:01:10.395Z,8.17
2022-09-25T01:02:20.537Z,6.83
2022-09-25T01:03:22.886Z,7.70
2022-09-25T01:04:26.413Z,6.37
2022-09-25T01:05:32.331Z,8.67
2022-09-25T01:06:35.793Z,9.77
2022-09-25T01:07:40.744Z,6.53
2022-09-25T01:08:45.265Z,7.30
2022-09-25T01:09:46.889Z,7.13
2022-09-25T01:10:48.483Z,6.83
2022-09-25T01:11:49.989Z,6.07
2022-09-25T01:12:52.944Z,9.23
2022-09-25T01:13:56.869Z,6.63
2022-09-25T01:14:58.405Z,10.63
2022-09-25T01:15:59.880Z,10.07
2022-09-25T01:17:24.741Z,9.03
2022-09-25T01:18:35.317Z,9.00
2022-09-25T01:19:39.848Z,7.53
2022-09-25T01:21:03.928Z,8.40
2022-09-25T01:22:18.953Z,9.23
2022-09-25T01:23:55.761Z,6.73
2022-09-25T01:25:24.234Z,8.47
2022-09-25T01:26:50.097Z,6.37
2022-09-25T01:28:06.634Z,7.83
2022-09-25T01:29:37.473Z,7.40
2022-09-25T01:30:44.655Z,7.00
2022-09-25T01:32:18.494Z,6.37
2022-09-25T01:33:27.420Z,6.17
2022-09-25T01:34:40.681Z,7.70
2022-09-25T01:35:48.199Z,7.53
2022-09-25T01:37:00.043Z,7.73
2022-09-25T01:38:34.952Z,7.00
2022-09-25T01:39:41.331Z,7.20
2022-09-25T01:40:56.619Z,7.77
2022-09-25T01:42:14.496Z,6.23
2022-09-25T01:43:20.851Z,10.07
2022-09-25T01:44:36.351Z,8.00
2022-09-25T01:45:47.566Z,9.03
2022-09-25T01:46:52.742Z,11.90
2022-09-25T01:47:57.407Z,7.97
2022-09-25T01:49:08.624Z,7.37
2022-09-25T01:50:19.185Z,12.53
2022-09-25T01:51:37.942Z,8.67
2022-09-25T01:52:47.895Z,6.67
2022-09-25T01:53:53.925Z,7.10
2022-09-25T01:55:02.515Z,7.03
2022-09-25T01:56:13.539Z,7.30
2022-09-25T01:57:31.865Z,8.07
2022-09-25T01:58:42.052Z,7.10
2022-09-25T02:00:09.942Z,11.77
2022-09-25T02:01:18.505Z,8.80
2022-09-25T02:02:26.882Z,7.07
2022-09-25T02:03:36.780Z,8.37
2022-09-25T02:04:42.985Z,7.37
2022-09-25T02:05:49.549Z,6.60
2022-09-25T02:06:53.872Z,7.80
2022-09-25T02:08:02.170Z,7.97
2022-09-25T02:09:11.231Z,10.23
2022-09-25T02:10:16.881Z,9.40
2022-09-25T02:11:18.402Z,6.73
2022-09-25T02:12:34.306Z,6.83
2022-09-25T02:13:43.301Z,7.80
2022-09-25T02:14:48.635Z,7.33
2022-09-25T02:16:26.198Z,7.17
2022-09-25T02:18:15.458Z,6.80
2022-09-25T02:19:36.579Z,7.93
2022-09-25T02:20:42.470Z,7.53
2022-09-25T02:22:04.840Z,7.13
2022-09-25T02:23:25.270Z,6.83
2022-09-25T02:24:37.258Z,6.77
2022-09-25T02:25:44.691Z,7.17
2022-09-25T02:26:46.851Z,9.00
2022-09-25T02:27:48.379Z,7.40
2022-09-25T02:28:51.608Z,7.17
2022-09-25T02:29:53.492Z,6.53
2022-09-25T02:30:59.239Z,9.73
2022-09-25T02:32:10.707Z,8.90
2022-09-25T02:33:12.306Z,7.00
2022-09-25T02:34:15.445Z,6.87
2022-09-25T02:35:17.320Z,6.97
2022-09-25T02:36:21.854Z,8.43
2022-09-25T02:37:24.106Z,8.30
2022-09-25T02:38:25.630Z,8.47
2022-09-25T02:39:29.963Z,9.40
2022-09-25T02:40:48.733Z,7.93
2022-09-25T02:42:05.187Z,7.70
2022-09-25T02:43:30.863Z,6.30
2022-09-25T02:44:47.745Z,6.70
2022-09-25T02:46:19.267Z,6.80
2022-09-25T02:47:34.733Z,7.30
2022-09-25T02:49:02.198Z,6.73
2022-09-25T02:50:15.921Z,8.10
2022-09-25T02:51:24.746Z,8.60
2022-09-25T02:52:38.809Z,7.27
2022-09-25T02:53:49.782Z,7.73
2022-09-25T02:55:04.209Z,7.43
2022-09-25T02:56:39.177Z,9.93
2022-09-25T02:57:58.976Z,7.17
2022-09-25T02:59:08.929Z,6.90
2022-09-25T03:00:11.537Z,6.13
2022-09-25T03:01:16.632Z,7.77
2022-09-25T03:02:19.892Z,7.23
2022-09-25T03:03:23.937Z,8.87
2022-09-25T03:04:27.681Z,8.97
2022-09-25T03:05:30.810Z,8.80
2022-09-25T03:06:32.665Z,6.60
2022-09-25T03:07:54.391Z,7.27
2022-09-25T03:08:58.857Z,6.60
2022-09-25T03:10:00.654Z,8.50
2022-09-25T03:11:03.925Z,6.80
2022-09-25T03:12:05.558Z,7.50
2022-09-25T03:13:17.491Z,6.37
2022-09-25T03:14:19.125Z,6.57
2022-09-25T03:15:23.838Z,8.10
2022-09-25T03:16:40.790Z,7.07
2022-09-25T03:17:43.606Z,7.60
2022-09-25T03:18:46.336Z,9.13
2022-09-25T03:19:47.874Z,6.50
2022-09-25T03:20:49.608Z,7.20
2022-09-25T03:21:51.170Z,7.87
2022-09-25T03:22:52.697Z,5.93
2022-09-25T03:23:56.966Z,10.67
2022-09-25T03:24:58.487Z,7.03
2022-09-25T03:26:00.089Z,7.33
2022-09-25T03:27:01.626Z,8.00
2022-09-25T03:28:03.645Z,7.80
2022-09-25T03:29:06.161Z,7.90
2022-09-25T03:30:11.157Z,8.13
2022-09-25T03:31:12.798Z,8.77
2022-09-25T03:32:15.085Z,9.40
2022-09-25T03:33:17.672Z,7.23
2022-09-25T03:34:20.101Z,7.40
2022-09-25T03:35:21.681Z,7.37
2022-09-25T03:36:25.723Z,7.37
2022-09-25T03:37:27.294Z,7.13
2022-09-25T03:38:28.916Z,7.80
2022-09-25T03:39:30.460Z,7.70
2022-09-25T03:40:32.730Z,7.93
2022-09-25T03:41:35.406Z,11.23
2022-09-25T03:42:37.031Z,9.00
2022-09-25T03:43:40.846Z,8.10
2022-09-25T03:44:43.028Z,8.60
2022-09-25T03:45:44.640Z,8.60
2022-09-25T03:46:46.282Z,6.90
2022-09-25T03:47:47.824Z,7.37
2022-09-25T03:48:49.772Z,7.63
2022-09-25T03:49:51.317Z,7.90
2022-09-25T03:50:53.332Z,6.70
2022-09-25T03:51:54.845Z,7.73
2022-09-25T03:52:57.154Z,6.70
2022-09-25T03:53:59.105Z,8.37
2022-09-25T03:55:00.698Z,7.73
2022-09-25T03:56:08.137Z,6.97
2022-09-25T03:57:12.391Z,7.20
2022-09-25T03:58:14.864Z,6.77
2022-09-25T03:59:16.969Z,8.97
2022-09-25T04:00:18.509Z,8.83
2022-09-25T04:01:21.942Z,8.60
2022-09-25T04:02:23.677Z,7.27
2022-09-25T04:03:29.151Z,8.20
2022-09-25T04:04:30.674Z,7.83
2022-09-25T04:05:34.842Z,6.83
2022-09-25T04:06:36.420Z,11.27
2022-09-25T04:07:38.305Z,7.70
2022-09-25T04:08:39.847Z,10.60
2022-09-25T04:09:41.386Z,7.83
2022-09-25T04:10:42.962Z,7.50
2022-09-25T04:11:45.140Z,8.27
2022-09-25T04:12:46.678Z,7.10
2022-09-25T04:13:48.289Z,9.00
2022-09-25T04:14:49.785Z,8.80
2022-09-25T04:15:51.753Z,8.47
2022-09-25T04:16:53.434Z,7.37
2022-09-25T04:17:58.057Z,8.13
2022-09-25T04:19:01.670Z,8.17
2022-09-25T04:20:03.578Z,8.97
2022-09-25T04:21:08.507Z,8.63
2022-09-25T04:22:10.133Z,7.67
2022-09-25T04:23:11.651Z,7.73
2022-09-25T04:24:31.710Z,8.83
2022-09-25T04:25:33.576Z,8.50
2022-09-25T04:26:35.551Z,8.97
2022-09-25T04:27:37.179Z,8.80
2022-09-25T04:28:38.736Z,8.87
2022-09-25T04:29:41.022Z,8.47
2022-09-25T04:30:42.542Z,10.37
2022-09-25T04:31:44.157Z,9.73
2022-09-25T04:33:04.371Z,8.13
2022-09-25T04:34:05.876Z,7.67
2022-09-25T04:35:08.081Z,8.23
2022-09-25T04:36:09.650Z,7.43
2022-09-25T04:37:12.099Z,8.60
2022-09-25T04:38:13.781Z,7.67
2022-09-25T04:39:20.081Z,7.00
2022-09-25T04:40:21.719Z,11.80
2022-09-25T04:41:23.279Z,7.73
2022-09-25T04:42:25.807Z,7.30
2022-09-25T04:43:34.368Z,8.43
2022-09-25T04:44:35.975Z,9.03
2022-09-25T04:45:37.775Z,7.23
2022-09-25T04:46:39.320Z,8.87
2022-09-25T04:47:40.946Z,7.63
2022-09-25T04:48:45.929Z,7.93
2022-09-25T04:49:47.701Z,7.47
2022-09-25T04:50:51.121Z,8.73
2022-09-25T04:51:52.705Z,8.90
2022-09-25T04:52:56.389Z,8.80
2022-09-25T04:53:58.033Z,9.00
2022-09-25T04:55:00.748Z,10.07
2022-09-25T04:56:05.459Z,8.57
2022-09-25T04:57:07.027Z,8.43
2022-09-25T04:58:11.137Z,8.57
2022-09-25T04:59:12.671Z,8.40
2022-09-25T05:00:18.691Z,8.57
2022-09-25T05:01:20.916Z,7.67
2022-09-25T05:02:28.061Z,10.67
2022-09-25T05:03:30.143Z,9.93
2022-09-25T05:04:32.102Z,9.33
2022-09-25T05:05:33.680Z,9.27
2022-09-25T05:06:35.173Z,9.43
2022-09-25T05:07:36.758Z,10.23
2022-09-25T05:08:38.273Z,8.00
2022-09-25T05:09:40.210Z,11.03
2022-09-25T05:10:44.268Z,10.03
2022-09-25T05:11:48.964Z,12.83
2022-09-25T05:12:56.353Z,13.17
2022-09-25T05:13:58.169Z,11.30
2022-09-25T05:14:59.814Z,8.43
2022-09-25T05:16:01.673Z,9.40
2022-09-25T05:17:03.417Z,10.13
2022-09-25T05:18:18.158Z,9.23
2022-09-25T05:19:19.739Z,11.03
2022-09-25T05:20:21.310Z,8.97
2022-09-25T05:21:22.914Z,8.60
2022-09-25T05:22:24.432Z,9.20
2022-09-25T05:23:26.052Z,10.70
2022-09-25T05:24:27.718Z,12.53
2022-09-25T05:25:29.542Z,10.27
2022-09-25T05:26:34.378Z,7.87
2022-09-25T05:27:35.964Z,11.37
2022-09-25T05:28:37.502Z,9.17
2022-09-25T05:29:40.201Z,9.47
2022-09-25T05:30:43.605Z,8.07
2022-09-25T05:31:48.729Z,7.90
2022-09-25T05:32:51.486Z,9.03
2022-09-25T05:33:54.023Z,8.63
2022-09-25T05:34:55.541Z,9.60
2022-09-25T05:36:01.854Z,8.37
2022-09-25T05:37:03.741Z,8.30
2022-09-25T05:38:06.751Z,9.73
2022-09-25T05:39:14.469Z,10.47
2022-09-25T05:40:18.596Z,9.87
2022-09-25T05:41:20.616Z,9.43
2022-09-25T05:42:23.104Z,7.80
2022-09-25T05:43:25.461Z,12.63
2022-09-25T05:44:28.477Z,10.20
2022-09-25T05:45:30.162Z,10.60
2022-09-25T05:46:31.866Z,9.93
2022-09-25T05:47:33.441Z,9.80
2022-09-25T05:48:35.369Z,8.53
2022-09-25T05:49:37.059Z,8.83
2022-09-25T05:50:38.640Z,9.17
2022-09-25T05:51:40.181Z,9.97
2022-09-25T05:52:41.701Z,10.03
2022-09-25T05:53:43.280Z,9.20
2022-09-25T05:54:44.842Z,10.77
2022-09-25T05:55:53.774Z,10.20
2022-09-25T05:56:55.309Z,13.60
2022-09-25T05:58:03.870Z,9.97
2022-09-25T05:59:05.477Z,10.27
2022-09-25T06:00:13.617Z,9.87
2022-09-25T06:01:15.221Z,8.50
2022-09-25T06:02:17.127Z,11.73
2022-09-25T06:03:20.521Z,12.30
2022-09-25T06:04:22.137Z,8.27
2022-09-25T06:05:23.656Z,12.57
2022-09-25T06:06:27.455Z,10.00
2022-09-25T06:07:29.317Z,11.33
2022-09-25T06:08:31.439Z,16.00
2022-09-25T06:09:33.069Z,9.73
2022-09-25T06:10:35.487Z,9.40
2022-09-25T06:11:36.981Z,7.40
2022-09-25T06:12:38.524Z,7.27
2022-09-25T06:13:40.942Z,12.87
2022-09-25T06:14:42.575Z,8.50
2022-09-25T06:15:44.131Z,11.17
2022-09-25T06:16:49.916Z,10.67
2022-09-25T06:17:51.734Z,9.13
2022-09-25T06:18:53.289Z,10.03
2022-09-25T06:19:54.825Z,11.73
2022-09-25T06:21:04.983Z,11.23
2022-09-25T06:22:06.582Z,10.33
2022-09-25T06:23:08.155Z,11.57
2022-09-25T06:24:10.815Z,10.00
2022-09-25T06:25:12.357Z,9.03
2022-09-25T06:26:14.380Z,12.73
2022-09-25T06:27:15.903Z,11.17
2022-09-25T06:28:17.569Z,9.67
2022-09-25T06:29:19.156Z,11.23
2022-09-25T06:30:22.143Z,13.43
2022-09-25T06:31:23.745Z,11.53
2022-09-25T06:32:25.315Z,17.07
2022-09-25T06:33:26.859Z,7.57
2022-09-25T06:34:28.548Z,8.63
2022-09-25T06:35:30.309Z,7.53
2022-09-25T06:36:32.309Z,7.37
2022-09-25T06:37:33.877Z,8.23
2022-09-25T06:38:35.564Z,9.97
2022-09-25T06:39:37.083Z,8.33
2022-09-25T06:40:41.456Z,8.97
2022-09-25T06:41:44.057Z,9.90
2022-09-25T06:42:46.252Z,8.70
2022-09-25T06:43:52.090Z,8.97
2022-09-25T06:44:53.640Z,7.23
2022-09-25T06:45:55.308Z,10.17
2022-09-25T06:46:56.874Z,7.17
2022-09-25T06:48:06.559Z,8.07
2022-09-25T06:49:08.154Z,10.97
2022-09-25T06:50:11.894Z,6.87
2022-09-25T06:51:13.475Z,7.23
2022-09-25T06:52:15.098Z,10.67
2022-09-25T06:53:18.203Z,10.87
2022-09-25T06:54:19.736Z,7.53
2022-09-25T06:55:21.274Z,9.30
2022-09-25T06:56:23.034Z,9.80
2022-09-25T06:57:24.549Z,6.97
2022-09-25T06:58:30.340Z,8.07
2022-09-25T06:59:32.533Z,7.47
2022-09-25T07:00:34.684Z,10.33
2022-09-25T07:01:36.232Z,7.10
2022-09-25T07:02:56.555Z,6.13
2022-09-25T07:03:58.124Z,10.47
2022-09-25T07:05:00.606Z,10.47
2022-09-25T07:06:04.279Z,8.38
2022-09-25T07:07:05.868Z,9.30
2022-09-25T07:08:07.504Z,7.13
2022-09-25T07:09:09.104Z,7.47
2022-09-25T07:10:11.314Z,6.13
2022-09-25T07:11:15.229Z,8.70
2022-09-25T07:12:18.515Z,8.65
2022-09-25T07:13:24.883Z,8.57
2022-09-25T07:14:26.378Z,8.23
2022-09-25T07:15:27.943Z,6.40
2022-09-25T07:16:30.638Z,7.43
2022-09-25T07:17:32.306Z,6.90
2022-09-25T07:18:34.330Z,6.00
2022-09-25T07:19:35.861Z,6.23
2022-09-25T07:20:37.827Z,5.60
2022-09-25T07:21:39.368Z,5.50
2022-09-25T07:22:42.648Z,6.30
2022-09-25T07:23:44.527Z,6.63
2022-09-25T07:24:46.161Z,6.87
2022-09-25T07:25:48.406Z,5.43
2022-09-25T07:26:49.976Z,6.03
2022-09-25T07:27:51.621Z,5.57
2022-09-25T07:29:01.262Z,6.13
2022-09-25T07:30:03.235Z,5.97
2022-09-25T07:31:19.521Z,5.88
2022-09-25T07:32:21.123Z,5.57
2022-09-25T07:33:25.110Z,7.60
2022-09-25T07:34:26.895Z,7.05
2022-09-25T07:35:28.500Z,5.45
2022-09-25T07:36:30.124Z,5.03
2022-09-25T07:37:31.703Z,6.55
2022-09-25T07:38:34.461Z,4.93
2022-09-25T07:39:36.107Z,4.53
2022-09-25T07:40:37.702Z,4.50
2022-09-25T07:41:39.324Z,7.57
2022-09-25T07:42:41.970Z,4.47
2022-09-25T07:43:43.713Z,4.72
2022-09-25T07:44:48.362Z,6.65
2022-09-25T07:45:53.673Z,4.22
2022-09-25T07:46:55.333Z,4.72
2022-09-25T07:47:58.173Z,5.40
2022-09-25T07:49:02.884Z,6.53
2022-09-25T07:50:04.747Z,4.10
2022-09-25T07:51:08.971Z,5.25
2022-09-25T07:52:10.519Z,5.30
2022-09-25T07:53:12.223Z,6.13
2022-09-25T07:54:13.868Z,4.10
2022-09-25T07:55:15.719Z,5.65
2022-09-25T07:56:17.729Z,7.78
2022-09-25T07:57:20.656Z,4.82
2022-09-25T07:58:23.824Z,4.43
2022-09-25T07:59:25.459Z,5.28
2022-09-25T08:00:27.025Z,7.32
2022-09-25T08:01:28.717Z,4.53
2022-09-25T08:02:35.194Z,5.20
2022-09-25T08:03:36.799Z,4.10
2022-09-25T08:04:38.394Z,6.17
2022-09-25T08:05:39.907Z,6.63
2022-09-25T08:06:41.522Z,4.25
2022-09-25T08:07:43.057Z,8.13
2022-09-25T08:08:44.747Z,5.25
2022-09-25T08:09:46.282Z,8.20
2022-09-25T08:10:48.354Z,4.80
2022-09-25T08:11:50.102Z,5.10
2022-09-25T08:12:51.766Z,4.38
2022-09-25T08:13:53.404Z,7.13
2022-09-25T08:14:54.996Z,4.45
2022-09-25T08:15:56.689Z,6.82
2022-09-25T08:16:58.342Z,5.53
2022-09-25T08:17:59.861Z,6.10
2022-09-25T08:19:01.448Z,10.25
2022-09-25T08:20:03.744Z,6.75
2022-09-25T08:21:05.541Z,5.18
2022-09-25T08:22:07.102Z,8.30
2022-09-25T08:23:08.686Z,6.28
2022-09-25T08:24:10.892Z,4.95
2022-09-25T08:25:13.065Z,9.77
2022-09-25T08:26:17.806Z,5.93
2022-09-25T08:27:19.525Z,5.30
2022-09-25T08:28:21.138Z,7.18
2022-09-25T08:29:23.108Z,5.00
2022-09-25T08:30:24.998Z,5.25
2022-09-25T08:31:27.004Z,5.05
2022-09-25T08:32:28.785Z,6.00
2022-09-25T08:33:31.447Z,4.32
2022-09-25T08:34:41.641Z,6.38
2022-09-25T08:35:43.687Z,5.18
2022-09-25T08:36:47.801Z,7.07
2022-09-25T08:37:49.379Z,6.75
2022-09-25T08:38:56.164Z,4.93
2022-09-25T08:39:59.362Z,5.75
2022-09-25T08:41:11.562Z,5.30
2022-09-25T08:42:27.623Z,4.60
2022-09-25T08:43:32.051Z,3.97
2022-09-25T08:44:52.566Z,3.90
2022-09-25T08:46:29.571Z,5.43
2022-09-25T08:47:49.980Z,3.75
2022-09-25T08:49:02.868Z,3.55
2022-09-25T08:50:10.360Z,4.05
2022-09-25T08:51:12.022Z,6.10
2022-09-25T08:52:18.684Z,4.78
2022-09-25T08:53:25.202Z,4.32
2022-09-25T08:54:29.404Z,3.60
2022-09-25T08:55:53.851Z,5.10
2022-09-25T08:57:04.413Z,3.28
2022-09-25T08:58:06.647Z,3.60
2022-09-25T08:59:24.039Z,6.35
2022-09-25T09:00:25.593Z,3.63
2022-09-25T09:01:30.222Z,3.38
2022-09-25T09:02:40.622Z,4.60
2022-09-25T09:03:50.198Z,4.93
2022-09-25T09:04:55.667Z,4.30
2022-09-25T09:06:02.720Z,3.55
2022-09-25T09:07:27.818Z,5.15
2022-09-25T09:08:33.616Z,3.80
2022-09-25T09:09:40.887Z,3.17
2022-09-25T09:10:52.121Z,4.88
2022-09-25T09:12:03.658Z,3.30
2022-09-25T09:13:37.293Z,4.15
2022-09-25T09:14:47.144Z,4.88
2022-09-25T09:16:02.721Z,4.50
2022-09-25T09:17:13.141Z,3.50
2022-09-25T09:18:26.936Z,3.45
2022-09-25T09:19:28.969Z,4.10
2022-09-25T09:20:43.267Z,6.45
2022-09-25T09:22:06.173Z,6.13
2022-09-25T09:23:18.071Z,3.95
2022-09-25T09:24:41.661Z,3.58
2022-09-25T09:25:58.342Z,2.63
2022-09-25T09:27:04.191Z,3.35
2022-09-25T09:28:50.016Z,4.10
2022-09-25T09:30:05.662Z,4.30
2022-09-25T09:31:26.036Z,4.50
2022-09-25T09:32:56.245Z,2.30
2022-09-25T09:34:12.345Z,2.53
2022-09-25T09:35:38.956Z,2.38
2022-09-25T09:36:52.993Z,4.03
2022-09-25T09:38:16.053Z,2.03
2022-09-25T09:39:23.681Z,2.70
2022-09-25T09:40:31.061Z,2.33
2022-09-25T09:41:50.280Z,2.42
2022-09-25T09:43:27.720Z,9.50
2022-09-25T09:44:54.542Z,7.80
2022-09-25T09:46:04.261Z,2.90
2022-09-25T09:47:39.848Z,2.05
2022-09-25T09:49:16.802Z,5.22
2022-09-25T09:50:49.902Z,3.67
2022-09-25T09:52:03.857Z,9.85
2022-09-25T09:53:19.327Z,23.52
2022-09-25T09:54:32.053Z,5.05
2022-09-25T09:55:47.089Z,5.32
2022-09-25T09:56:51.711Z,4.65
2022-09-25T09:57:57.465Z,3.53
2022-09-25T09:59:04.064Z,4.85
2022-09-25T10:00:13.439Z,4.00
2022-09-25T10:01:37.017Z,13.98
2022-09-25T10:02:44.392Z,6.97
2022-09-25T10:03:49.215Z,5.75
2022-09-25T10:04:53.944Z,1.88
2022-09-25T10:05:59.673Z,4.13
2022-09-25T10:07:16.730Z,3.15
2022-09-25T10:08:18.335Z,3.20
2022-09-25T10:09:19.892Z,1.98
2022-09-25T10:10:28.230Z,3.50
2022-09-25T10:11:32.273Z,5.45
2022-09-25T10:12:37.594Z,6.03
2022-09-25T10:13:45.901Z,3.90
2022-09-25T10:14:48.391Z,6.63
2022-09-25T10:16:04.789Z,6.32
2022-09-25T10:17:11.437Z,6.45
2022-09-25T10:18:15.268Z,6.20
2022-09-25T10:19:24.338Z,6.38
2022-09-25T10:20:31.044Z,8.73
2022-09-25T10:21:41.052Z,3.78
2022-09-25T10:22:46.149Z,6.80
2022-09-25T10:23:52.663Z,8.27
2022-09-25T10:24:55.584Z,9.95
2022-09-25T10:25:57.107Z,12.70
2022-09-25T10:27:21.414Z,2.78
2022-09-25T10:28:36.901Z,2.97
2022-09-25T10:29:38.472Z,2.97
2022-09-25T10:30:46.538Z,3.67
2022-09-25T10:31:56.284Z,2.35
2022-09-25T10:33:11.637Z,2.22
2022-09-25T10:34:13.230Z,3.17
2022-09-25T10:35:17.946Z,5.75
2022-09-25T10:36:36.023Z,2.55
2022-09-25T10:37:37.681Z,8.02
2022-09-25T10:38:53.493Z,4.05
2022-09-25T10:40:08.630Z,2.92
2022-09-25T10:41:20.061Z,1.63
2022-09-25T10:42:41.618Z,3.72
2022-09-25T10:44:01.182Z,9.85
2022-09-25T10:45:22.018Z,3.40
2022-09-25T10:46:46.525Z,2.30
2022-09-25T10:48:09.312Z,1.90
2022-09-25T10:49:43.226Z,3.38
2022-09-25T10:50:45.314Z,8.52
2022-09-25T10:52:08.067Z,1.73
2022-09-25T10:53:30.412Z,2.78
2022-09-25T10:54:33.645Z,4.63
2022-09-25T10:55:44.067Z,2.25
2022-09-25T10:56:45.617Z,1.92
2022-09-25T10:57:48.170Z,9.80
2022-09-25T10:58:59.750Z,4.40
2022-09-25T11:00:03.327Z,2.42
2022-09-25T11:01:07.351Z,6.68
2022-09-25T11:02:40.392Z,5.65
2022-09-25T11:03:49.174Z,2.20
2022-09-25T11:04:52.835Z,2.70
2022-09-25T11:06:05.431Z,2.63
2022-09-25T11:07:17.138Z,4.35
2022-09-25T11:08:23.791Z,3.15
2022-09-25T11:09:28.103Z,6.68
2022-09-25T11:10:45.255Z,6.38
2022-09-25T11:11:49.454Z,3.20
2022-09-25T11:12:52.539Z,5.63
2022-09-25T11:13:57.139Z,2.45
2022-09-25T11:15:08.907Z,5.63
2022-09-25T11:16:11.078Z,5.50
2022-09-25T11:17:32.094Z,3.95
2022-09-25T11:18:59.062Z,2.38
2022-09-25T11:20:22.599Z,2.55
2022-09-25T11:21:30.105Z,4.35
2022-09-25T11:22:37.921Z,1.60
2022-09-25T11:23:46.609Z,3.33
2022-09-25T11:25:01.872Z,3.17
2022-09-25T11:26:20.521Z,5.60
2022-09-25T11:27:43.174Z,3.13
2022-09-25T11:28:54.290Z,2.72
2022-09-25T11:30:17.117Z,3.13
2022-09-25T11:31:41.647Z,1.70
2022-09-25T11:33:13.734Z,10.73
2022-09-25T11:34:47.248Z,18.65
2022-09-25T11:36:15.823Z,11.27
2022-09-25T11:37:23.341Z,9.48
2022-09-25T11:38:52.605Z,2.60
2022-09-25T11:40:38.705Z,2.55
2022-09-25T11:42:00.697Z,2.25
2022-09-25T11:43:07.911Z,3.25
2022-09-25T11:44:23.451Z,3.03
2022-09-25T11:45:36.612Z,1.92
2022-09-25T11:46:50.412Z,2.95
2022-09-25T11:48:03.778Z,11.93
2022-09-25T11:49:12.488Z,2.05
2022-09-25T11:50:17.088Z,2.13
2022-09-25T11:51:44.826Z,3.28
2022-09-25T11:52:55.973Z,1.80
2022-09-25T11:54:33.901Z,3.20
2022-09-25T11:55:45.819Z,4.28
2022-09-25T11:57:12.709Z,2.97
2022-09-25T11:58:33.358Z,2.00
2022-09-25T11:59:49.393Z,1.75
2022-09-25T12:01:18.185Z,4.18
2022-09-25T12:02:44.782Z,2.30
2022-09-25T12:04:04.561Z,2.25
2022-09-25T12:05:21.281Z,2.83
2022-09-25T12:06:22.807Z,4.18
2022-09-25T12:07:30.418Z,2.05
2022-09-25T12:09:06.995Z,2.30
2022-09-25T12:10:27.017Z,3.42
2022-09-25T12:11:45.667Z,3.58
2022-09-25T12:12:57.711Z,1.73
2022-09-25T12:14:06.450Z,3.42
2022-09-25T12:15:09.165Z,4.13
2022-09-25T12:16:25.595Z,2.08
2022-09-25T12:17:51.390Z,2.33
2022-09-25T12:18:55.957Z,3.55
2022-09-25T12:20:16.368Z,3.85
2022-09-25T12:21:46.849Z,3.50
2022-09-25T12:23:29.970Z,4.38
2022-09-25T12:24:40.158Z,2.10
2022-09-25T12:26:12.573Z,6.05
2022-09-25T12:27:42.761Z,4.57
2022-09-25T12:29:28.398Z,5.13
2022-09-25T12:30:57.154Z,9.68
2022-09-25T12:32:28.529Z,4.85
2022-09-25T12:33:38.809Z,5.75
2022-09-25T12:34:58.788Z,4.63
2022-09-25T12:36:11.678Z,1.70
2022-09-25T12:37:31.947Z,4.55
2022-09-25T12:38:50.517Z,4.47
2022-09-25T12:40:03.644Z,5.65
2022-09-25T12:41:19.151Z,2.58
2022-09-25T12:42:38.668Z,2.13
2022-09-25T12:44:12.361Z,3.05
2022-09-25T12:45:27.286Z,2.20
2022-09-25T12:46:51.239Z,4.70
2022-09-25T12:48:20.963Z,3.30
2022-09-25T12:49:30.165Z,2.22
2022-09-25T12:50:39.692Z,7.03
2022-09-25T12:51:45.612Z,3.63
2022-09-25T12:52:53.114Z,2.70
2022-09-25T12:54:41.877Z,3.47
2022-09-25T12:55:53.009Z,4.20
2022-09-25T12:57:04.175Z,5.15
2022-09-25T12:58:12.492Z,4.45
2022-09-25T12:59:29.970Z,2.17
2022-09-25T13:00:35.889Z,4.30
2022-09-25T13:02:19.505Z,2.00
2022-09-25T13:03:28.384Z,4.00
2022-09-25T13:04:39.894Z,3.47
2022-09-25T13:05:56.221Z,3.63
2022-09-25T13:07:23.581Z,2.42
2022-09-25T13:08:35.324Z,3.00
2022-09-25T13:09:46.052Z,1.80
2022-09-25T13:10:59.310Z,1.88
2022-09-25T13:12:24.832Z,3.13
2022-09-25T13:13:30.300Z,3.85
2022-09-25T13:15:16.210Z,1.77
2022-09-25T13:16:17.821Z,2.25
2022-09-25T13:17:19.816Z,2.00
2022-09-25T13:18:24.448Z,1.90
2022-09-25T13:19:27.518Z,1.63
2022-09-25T13:20:29.703Z,2.45
2022-09-25T13:21:38.269Z,1.70
2022-09-25T13:22:41.878Z,2.00
2022-09-25T13:23:43.482Z,1.80
2022-09-25T13:25:02.609Z,4.57
2022-09-25T13:26:41.828Z,2.13
2022-09-25T13:27:46.283Z,3.08
2022-09-25T13:29:00.121Z,2.20
2022-09-25T13:30:01.911Z,2.22
2022-09-25T13:31:12.537Z,5.28
2022-09-25T13:32:23.595Z,3.88
2022-09-25T13:33:26.601Z,1.77
2022-09-25T13:34:28.723Z,2.20
2022-09-25T13:35:36.238Z,1.95
2022-09-25T13:36:45.844Z,2.58
2022-09-25T13:37:50.698Z,1.80
2022-09-25T13:39:32.114Z,2.60
2022-09-25T13:40:43.173Z,1.80
2022-09-25T13:42:02.699Z,1.83
2022-09-25T13:43:38.825Z,1.63
2022-09-25T13:44:43.705Z,1.60
2022-09-25T13:45:47.785Z,2.70
2022-09-25T13:46:49.534Z,1.90
2022-09-25T13:48:07.938Z,3.95
2022-09-25T13:49:34.109Z,3.50
2022-09-25T13:50:41.209Z,3.72
2022-09-25T13:51:45.216Z,2.05
2022-09-25T13:52:46.715Z,4.28
2022-09-25T13:54:03.732Z,2.45
2022-09-25T13:55:13.900Z,1.63
2022-09-25T13:56:21.494Z,3.47
2022-09-25T13:58:01.461Z,1.90
2022-09-25T13:59:13.757Z,3.40
2022-09-25T14:00:15.888Z,2.47
2022-09-25T14:01:36.276Z,1.88
2022-09-25T14:02:43.262Z,1.90
2022-09-25T14:03:48.177Z,3.58
2022-09-25T14:04:50.038Z,2.08
2022-09-25T14:05:51.615Z,3.30
2022-09-25T14:06:58.286Z,3.85
2022-09-25T14:08:22.447Z,2.88
2022-09-25T14:09:30.361Z,2.47
2022-09-25T14:10:32.412Z,2.30
2022-09-25T14:11:37.780Z,2.33
2022-09-25T14:12:45.908Z,2.53
2022-09-25T14:13:55.588Z,3.65
2022-09-25T14:15:06.171Z,2.03
2022-09-25T14:16:15.754Z,3.50
2022-09-25T14:17:17.713Z,2.15
2022-09-25T14:18:25.249Z,1.80
2022-09-25T14:19:31.359Z,2.53
2022-09-25T14:20:40.621Z,1.77
2022-09-25T14:21:44.719Z,3.45
2022-09-25T14:22:54.045Z,1.88
2022-09-25T14:23:57.772Z,4.93
2022-09-25T14:24:59.878Z,4.40
2022-09-25T14:26:07.850Z,1.95
2022-09-25T14:27:35.448Z,3.30
2022-09-25T14:28:45.247Z,3.10
2022-09-25T14:29:46.842Z,2.25
2022-09-25T14:30:54.941Z,3.55
2022-09-25T14:32:54.594Z,3.22
2022-09-25T14:34:47.898Z,2.33
2022-09-25T14:35:58.401Z,3.88
2022-09-25T14:37:15.808Z,3.50
2022-09-25T14:38:50.842Z,1.77
2022-09-25T14:40:01.464Z,2.92
2022-09-25T14:41:15.348Z,2.33
2022-09-25T14:42:53.327Z,2.63
2022-09-25T14:43:57.871Z,2.50
2022-09-25T14:45:06.326Z,4.22
2022-09-25T14:46:20.310Z,4.10
2022-09-25T14:47:22.366Z,2.95
2022-09-25T14:48:38.612Z,2.97
2022-09-25T14:49:45.265Z,3.28
2022-09-25T14:50:58.788Z,2.42
2022-09-25T14:52:08.355Z,3.92
2022-09-25T14:53:25.813Z,4.45
2022-09-25T14:54:36.558Z,3.72
2022-09-25T14:55:51.219Z,3.35
2022-09-25T14:56:58.063Z,4.80
2022-09-25T14:58:01.826Z,5.20
2022-09-25T14:59:10.418Z,3.05
2022-09-25T15:00:17.980Z,4.50
2022-09-25T15:01:29.539Z,5.15
2022-09-25T15:02:40.894Z,4.60
2022-09-25T15:03:47.076Z,4.05
2022-09-25T15:04:49.126Z,2.25
2022-09-25T15:05:50.968Z,2.63
2022-09-25T15:07:07.778Z,2.67
2022-09-25T15:08:24.495Z,3.53
2022-09-25T15:09:36.472Z,5.05
2022-09-25T15:10:39.041Z,3.33